createdAt,value
2024-02-22T07:24:39.580Z,600.00
2024-02-22T07:25:41.612Z,600.00
2024-02-22T07:26:40.759Z,600.00
2024-02-22T07:27:41.182Z,600.00
2024-02-22T07:28:40.838Z,600.00
2024-02-22T07:29:40.690Z,411.00
2024-02-22T07:30:40.746Z,400.00
2024-02-22T07:31:41.081Z,400.00
2024-02-22T07:32:41.009Z,400.00
2024-02-22T07:33:42.088Z,400.00
2024-02-22T07:34:40.786Z,400.00
2024-02-22T07:35:43.966Z,400.00
2024-02-22T07:36:40.812Z,400.00
2024-02-22T07:37:40.820Z,400.00
2024-02-22T07:38:40.791Z,400.00
2024-02-22T07:39:40.779Z,400.00
2024-02-22T07:40:40.822Z,400.00
2024-02-22T07:41:40.947Z,400.00
2024-02-22T07:42:40.800Z,400.00
2024-02-22T07:43:40.833Z,400.00
2024-02-22T07:44:40.787Z,400.00
2024-02-22T07:45:40.894Z,400.00
2024-02-22T07:46:40.817Z,400.00
2024-02-22T07:47:41.482Z,400.00
2024-02-22T07:48:40.885Z,400.00
2024-02-22T07:49:40.796Z,400.00
2024-02-22T07:50:40.958Z,400.00
2024-02-22T07:51:50.203Z,400.00
2024-02-22T07:52:41.115Z,400.00
2024-02-22T07:53:40.804Z,400.00
2024-02-22T07:54:40.832Z,400.00
2024-02-22T07:55:40.899Z,400.00
2024-02-22T07:56:40.904Z,400.00
2024-02-22T07:57:41.448Z,400.00
2024-02-22T07:58:40.823Z,400.00
2024-02-22T07:59:40.814Z,400.00
2024-02-22T08:00:40.999Z,400.00
2024-02-22T08:01:40.844Z,400.00
2024-02-22T08:02:40.987Z,400.00
2024-02-22T08:03:40.974Z,400.00
2024-02-22T08:04:41.082Z,400.00
2024-02-22T08:05:40.906Z,400.00
2024-02-22T08:06:40.877Z,400.00
2024-02-22T08:07:40.867Z,400.00
2024-02-22T08:08:41.974Z,400.00
2024-02-22T08:09:40.818Z,400.00
2024-02-22T08:10:40.858Z,400.00
2024-02-22T08:11:41.020Z,400.00
2024-02-22T08:12:40.855Z,400.00
2024-02-22T08:13:40.867Z,400.00
2024-02-22T08:14:41.377Z,400.00
2024-02-22T08:15:40.830Z,400.00
2024-02-22T08:16:40.851Z,400.00
2024-02-22T08:17:40.884Z,400.00
2024-02-22T08:18:40.846Z,400.00
2024-02-22T08:19:41.079Z,400.00
2024-02-22T08:20:41.034Z,400.00
2024-02-22T08:21:40.913Z,400.00
2024-02-22T08:22:40.974Z,400.00
2024-02-22T08:23:41.615Z,400.00
2024-02-22T08:24:40.998Z,400.00
2024-02-22T08:25:41.086Z,400.00
2024-02-22T08:26:41.465Z,400.00
2024-02-22T08:27:50.153Z,400.00
2024-02-22T08:28:41.569Z,400.00
2024-02-22T08:29:41.033Z,400.00
2024-02-22T08:30:41.053Z,400.00
2024-02-22T08:31:41.698Z,400.00
2024-02-22T08:32:41.106Z,400.00
2024-02-22T08:33:41.537Z,400.00
2024-02-22T08:34:41.085Z,400.00
2024-02-22T08:35:41.045Z,400.00
2024-02-22T08:36:41.054Z,400.00
2024-02-22T08:37:41.077Z,407.00
2024-02-22T08:38:41.478Z,442.00
2024-02-22T08:39:41.464Z,481.00
2024-02-22T08:40:41.077Z,521.00
2024-02-22T08:41:41.095Z,562.00
2024-02-22T08:42:41.062Z,600.00
2024-02-22T08:43:42.093Z,603.00
2024-02-22T08:44:41.493Z,606.00
2024-02-22T08:45:41.182Z,609.00
2024-02-22T08:46:41.120Z,613.00
2024-02-22T08:47:44.451Z,618.00
2024-02-22T08:48:41.883Z,618.00
2024-02-22T08:49:41.164Z,619.00
2024-02-22T08:50:41.075Z,621.00
2024-02-22T08:51:41.084Z,624.00
2024-02-22T08:52:41.124Z,624.00
2024-02-22T08:53:41.500Z,625.00
2024-02-22T08:54:41.103Z,626.00
2024-02-22T08:55:41.170Z,627.00
2024-02-22T08:56:41.099Z,628.00
2024-02-22T08:57:51.220Z,623.00
2024-02-22T08:58:41.127Z,619.00
2024-02-22T08:59:41.518Z,615.00
2024-02-22T09:00:41.513Z,608.00
2024-02-22T09:01:41.200Z,599.00
2024-02-22T09:02:41.123Z,591.00
2024-02-22T09:03:41.517Z,602.00
2024-02-22T09:04:41.164Z,600.00
2024-02-22T09:05:41.143Z,600.00
2024-02-22T09:06:41.617Z,601.00
2024-02-22T09:07:41.343Z,601.00
2024-02-22T09:08:41.221Z,600.00
2024-02-22T09:09:41.113Z,601.00
2024-02-22T09:10:41.143Z,600.00
2024-02-22T09:11:41.185Z,599.00
2024-02-22T09:12:41.579Z,601.00
2024-02-22T09:13:44.325Z,603.00
2024-02-22T09:14:41.486Z,603.00
2024-02-22T09:15:42.755Z,600.00
2024-02-22T09:16:41.266Z,598.00
2024-02-22T09:17:41.172Z,599.00
2024-02-22T09:18:41.217Z,596.00
2024-02-22T09:19:41.274Z,600.00
2024-02-22T09:20:41.155Z,600.00
2024-02-22T09:21:41.531Z,601.00
2024-02-22T09:22:41.159Z,600.00
2024-02-22T09:23:41.737Z,602.00
2024-02-22T09:24:41.205Z,606.00
2024-02-22T09:25:41.308Z,610.00
2024-02-22T09:26:41.312Z,607.00
2024-02-22T09:27:41.380Z,607.00
2024-02-22T09:28:41.495Z,609.00
2024-02-22T09:29:41.475Z,611.00
2024-02-22T09:30:41.536Z,609.00
2024-02-22T09:31:41.659Z,609.00
2024-02-22T09:32:41.687Z,605.00
2024-02-22T09:33:41.779Z,606.00
2024-02-22T09:34:41.830Z,606.00
2024-02-22T09:35:41.828Z,604.00
2024-02-22T09:36:42.063Z,608.00
2024-02-22T09:37:41.890Z,608.00
2024-02-22T09:38:41.927Z,605.00
2024-02-22T09:39:41.961Z,606.00
2024-02-22T09:40:42.062Z,604.00
2024-02-22T09:41:42.493Z,601.00
2024-02-22T09:42:42.066Z,605.00
2024-02-22T09:43:42.140Z,609.00
2024-02-22T09:44:42.271Z,612.00
2024-02-22T09:45:43.196Z,616.00
2024-02-22T09:46:42.600Z,613.00
2024-02-22T09:47:42.388Z,615.00
2024-02-22T09:48:42.537Z,621.00
2024-02-22T09:49:42.563Z,621.00
2024-02-22T09:50:42.669Z,621.00
2024-02-22T09:51:43.005Z,623.00
2024-02-22T09:52:43.071Z,624.00
2024-02-22T09:53:42.738Z,626.00
2024-02-22T09:54:42.762Z,629.00
2024-02-22T09:55:42.888Z,630.00
2024-02-22T09:56:42.998Z,632.00
2024-02-22T09:57:42.993Z,628.00
2024-02-22T09:58:42.993Z,628.00
2024-02-22T09:59:43.011Z,620.00
2024-02-22T10:00:58.752Z,609.00
2024-02-22T10:01:43.580Z,609.00
2024-02-22T10:02:43.077Z,602.00
2024-02-22T10:03:43.135Z,588.00
2024-02-22T10:04:43.203Z,580.00
2024-02-22T10:05:43.195Z,572.00
2024-02-22T10:06:43.552Z,569.00
2024-02-22T10:07:43.157Z,600.00
2024-02-22T10:08:45.881Z,600.00
2024-02-22T10:09:43.110Z,600.00
2024-02-22T10:10:43.198Z,600.00
2024-02-22T10:11:43.659Z,596.00
2024-02-22T10:12:43.617Z,590.00
2024-02-22T10:13:43.279Z,588.00
2024-02-22T10:14:43.195Z,603.00
2024-02-22T10:15:43.108Z,603.00
2024-02-22T10:16:43.603Z,608.00
2024-02-22T10:17:43.168Z,602.00
2024-02-22T10:18:43.216Z,605.00
2024-02-22T10:19:43.118Z,606.00
2024-02-22T10:20:45.097Z,603.00
2024-02-22T10:21:43.358Z,601.00
2024-02-22T10:22:43.563Z,594.00
2024-02-22T10:23:43.102Z,592.00
2024-02-22T10:24:43.111Z,590.00
2024-02-22T10:25:43.155Z,587.00
2024-02-22T10:26:43.126Z,600.00
2024-02-22T10:27:44.557Z,603.00
2024-02-22T10:28:43.154Z,601.00
2024-02-22T10:29:43.160Z,604.00
2024-02-22T10:30:43.516Z,602.00
2024-02-22T10:31:43.302Z,604.00
2024-02-22T10:32:43.945Z,606.00
2024-02-22T10:33:43.477Z,604.00
2024-02-22T10:34:43.484Z,605.00
2024-02-22T10:35:43.502Z,604.00
2024-02-22T10:36:43.544Z,606.00
2024-02-22T10:37:44.594Z,600.00
2024-02-22T10:38:43.600Z,601.00
2024-02-22T10:39:43.640Z,601.00
2024-02-22T10:40:43.724Z,600.00
2024-02-22T10:41:43.723Z,602.00
2024-02-22T10:42:44.012Z,602.00
2024-02-22T10:43:43.809Z,609.00
2024-02-22T10:44:43.853Z,613.00
2024-02-22T10:45:43.909Z,624.00
2024-02-22T10:46:44.068Z,619.00
2024-02-22T10:47:44.602Z,623.00
2024-02-22T10:48:44.228Z,631.00
2024-02-22T10:49:44.189Z,631.00
2024-02-22T10:50:44.254Z,633.00
2024-02-22T10:51:44.328Z,629.00
2024-02-22T10:52:44.454Z,628.00
2024-02-22T10:53:44.452Z,633.00
2024-02-22T10:54:44.580Z,640.00
2024-02-22T10:55:44.629Z,645.00
2024-02-22T10:56:44.663Z,644.00
2024-02-22T10:57:44.733Z,641.00
2024-02-22T10:58:45.965Z,633.00
2024-02-22T10:59:44.886Z,638.00
2024-02-22T11:00:44.984Z,648.00
2024-02-22T11:01:45.055Z,648.00
2024-02-22T11:02:45.519Z,646.00
2024-02-22T11:03:45.146Z,646.00
2024-02-22T11:04:45.185Z,644.00
2024-02-22T11:05:45.241Z,645.00
2024-02-22T11:06:45.317Z,640.00
2024-02-22T11:07:45.429Z,644.00
2024-02-22T11:08:45.498Z,660.00
2024-02-22T11:09:45.462Z,660.00
2024-02-22T11:10:45.544Z,661.00
2024-02-22T11:11:45.704Z,662.00
2024-02-22T11:12:45.611Z,657.00
2024-02-22T11:13:45.690Z,650.00
2024-02-22T11:14:45.714Z,650.00
2024-02-22T11:15:45.770Z,653.00
2024-02-22T11:16:45.849Z,659.00
2024-02-22T11:17:46.033Z,659.00
2024-02-22T11:18:45.958Z,656.00
2024-02-22T11:19:45.995Z,657.00
2024-02-22T11:20:46.018Z,651.00
2024-02-22T11:21:46.083Z,652.00
2024-02-22T11:22:46.591Z,656.00
2024-02-22T11:23:46.640Z,649.00
2024-02-22T11:24:46.277Z,653.00
2024-02-22T11:25:46.299Z,651.00
2024-02-22T11:26:46.319Z,647.00
2024-02-22T11:27:46.536Z,647.00
2024-02-22T11:28:46.554Z,659.00
2024-02-22T11:29:46.546Z,661.00
2024-02-22T11:30:46.557Z,662.00
2024-02-22T11:31:46.658Z,666.00
2024-02-22T11:32:47.051Z,666.00
2024-02-22T11:33:46.847Z,668.00
2024-02-22T11:34:46.788Z,664.00
2024-02-22T11:35:46.783Z,670.00
2024-02-22T11:36:46.830Z,687.00
2024-02-22T11:37:47.064Z,702.00
2024-02-22T11:38:47.006Z,694.00
2024-02-22T11:39:46.976Z,702.00
2024-02-22T11:40:47.077Z,710.00
2024-02-22T11:41:47.031Z,715.00
2024-02-22T11:42:47.069Z,720.00
2024-02-22T11:43:47.153Z,725.00
2024-02-22T11:44:47.667Z,728.00
2024-02-22T11:45:47.191Z,726.00
2024-02-22T11:46:47.247Z,735.00
2024-02-22T11:47:47.325Z,735.00
2024-02-22T11:48:47.348Z,728.00
2024-02-22T11:49:47.350Z,712.00
2024-02-22T11:50:47.365Z,709.00
2024-02-22T11:51:47.403Z,710.00
2024-02-22T11:52:47.559Z,728.00
2024-02-22T11:53:48.030Z,733.00
2024-02-22T11:54:47.500Z,738.00
2024-02-22T11:55:47.552Z,742.00
2024-02-22T11:56:47.581Z,747.00
2024-02-22T11:57:47.600Z,752.00
2024-02-22T11:58:47.639Z,733.00
2024-02-22T11:59:48.038Z,718.00
2024-02-22T12:00:47.732Z,704.00
2024-02-22T12:01:47.752Z,709.00
2024-02-22T12:02:47.780Z,716.00
2024-02-22T12:03:47.785Z,725.00
2024-02-22T12:04:47.836Z,726.00
2024-02-22T12:05:47.910Z,739.00
2024-02-22T12:06:47.957Z,751.00
2024-02-22T12:07:47.929Z,757.00
2024-02-22T12:08:47.923Z,753.00
2024-02-22T12:09:47.953Z,768.00
2024-02-22T12:10:48.197Z,785.00
2024-02-22T12:11:48.065Z,755.00
2024-02-22T12:12:48.059Z,750.00
2024-02-22T12:13:48.109Z,751.00
2024-02-22T12:14:48.550Z,744.00
2024-02-22T12:15:48.193Z,753.00
2024-02-22T12:16:48.193Z,752.00
2024-02-22T12:17:48.551Z,751.00
2024-02-22T12:18:48.256Z,758.00
2024-02-22T12:19:48.564Z,764.00
2024-02-22T12:20:48.274Z,769.00
2024-02-22T12:21:48.334Z,749.00
2024-02-22T12:22:48.315Z,749.00
2024-02-22T12:23:48.294Z,743.00
2024-02-22T12:24:48.306Z,743.00
2024-02-22T12:25:48.330Z,739.00
2024-02-22T12:26:48.306Z,751.00
2024-02-22T12:27:48.313Z,753.00
2024-02-22T12:28:48.372Z,762.00
2024-02-22T12:29:48.341Z,755.00
2024-02-22T12:30:48.345Z,738.00
2024-02-22T12:31:48.364Z,730.00
2024-02-22T12:32:48.681Z,719.00
2024-02-22T12:33:48.502Z,725.00
2024-02-22T12:34:48.522Z,727.00
2024-02-22T12:35:48.523Z,727.00
2024-02-22T12:36:48.561Z,722.00
2024-02-22T12:37:49.070Z,705.00
2024-02-22T12:38:48.603Z,700.00
2024-02-22T12:39:48.714Z,704.00
2024-02-22T12:40:48.823Z,703.00
2024-02-22T12:41:49.145Z,713.00
2024-02-22T12:42:48.836Z,716.00
2024-02-22T12:43:48.973Z,719.00
2024-02-22T12:44:49.967Z,719.00
2024-02-22T12:45:48.993Z,721.00
2024-02-22T12:46:49.071Z,711.00
2024-02-22T12:47:49.306Z,714.00
2024-02-22T12:48:49.260Z,692.00
2024-02-22T12:49:49.281Z,695.00
2024-02-22T12:50:49.286Z,696.00
2024-02-22T12:51:49.346Z,701.00
2024-02-22T12:52:49.395Z,703.00
2024-02-22T12:53:49.430Z,708.00
2024-02-22T12:54:49.476Z,707.00
2024-02-22T12:55:49.572Z,712.00
2024-02-22T12:56:49.559Z,719.00
2024-02-22T12:57:49.608Z,727.00
2024-02-22T12:58:49.752Z,726.00
2024-02-22T12:59:49.669Z,716.00
2024-02-22T13:00:49.783Z,721.00
2024-02-22T13:01:49.803Z,727.00
2024-02-22T13:02:49.846Z,737.00
2024-02-22T13:03:49.894Z,774.00
2024-02-22T13:04:50.008Z,777.00
2024-02-22T13:05:49.983Z,774.00
2024-02-22T13:06:50.083Z,766.00
2024-02-22T13:07:50.647Z,756.00
2024-02-22T13:08:50.137Z,750.00
2024-02-22T13:09:50.184Z,764.00
2024-02-22T13:10:50.297Z,769.00
2024-02-22T13:11:50.465Z,770.00
2024-02-22T13:12:50.586Z,772.00
2024-02-22T13:13:50.402Z,750.00
2024-02-22T13:14:50.397Z,741.00
2024-02-22T13:15:50.457Z,740.00
2024-02-22T13:16:50.490Z,745.00
2024-02-22T13:17:50.605Z,754.00
2024-02-22T13:18:50.656Z,747.00
2024-02-22T13:19:50.689Z,763.00
2024-02-22T13:20:50.615Z,770.00
2024-02-22T13:21:50.655Z,762.00
2024-02-22T13:22:51.281Z,762.00
2024-02-22T13:23:51.100Z,769.00
2024-02-22T13:24:50.816Z,772.00
2024-02-22T13:25:50.911Z,776.00
2024-02-22T13:26:50.934Z,785.00
2024-02-22T13:27:51.150Z,786.00
2024-02-22T13:28:51.118Z,765.00
2024-02-22T13:29:51.060Z,756.00
2024-02-22T13:30:51.118Z,747.00
2024-02-22T13:31:51.179Z,751.00
2024-02-22T13:32:52.298Z,760.00
2024-02-22T13:33:51.730Z,755.00
2024-02-22T13:34:51.436Z,751.00
2024-02-22T13:35:51.355Z,756.00
2024-02-22T13:36:51.396Z,760.00
2024-02-22T13:37:51.472Z,752.00
2024-02-22T13:38:51.600Z,753.00
2024-02-22T13:39:58.033Z,782.00
2024-02-22T13:40:51.560Z,782.00
2024-02-22T13:41:51.834Z,785.00
2024-02-22T13:42:51.518Z,788.00
2024-02-22T13:43:51.551Z,789.00
2024-02-22T13:44:51.618Z,783.00
2024-02-22T13:45:51.547Z,787.00
2024-02-22T13:46:51.583Z,792.00
2024-02-22T13:47:51.782Z,789.00
2024-02-22T13:48:51.959Z,787.00
2024-02-22T13:49:51.652Z,789.00
2024-02-22T13:50:51.544Z,784.00
2024-02-22T13:51:51.547Z,791.00
2024-02-22T13:52:51.597Z,798.00
2024-02-22T13:53:51.814Z,792.00
2024-02-22T13:54:51.808Z,798.00
2024-02-22T13:55:51.887Z,795.00
2024-02-22T13:56:52.830Z,782.00
2024-02-22T13:57:51.875Z,792.00
2024-02-22T13:58:51.850Z,788.00
2024-02-22T13:59:51.840Z,794.00
2024-02-22T14:00:51.927Z,774.00
2024-02-22T14:01:52.492Z,803.00
2024-02-22T14:02:52.024Z,791.00
2024-02-22T14:03:52.099Z,782.00
2024-02-22T14:04:52.246Z,804.00
2024-02-22T14:05:53.593Z,816.00
2024-02-22T14:06:52.346Z,809.00
2024-02-22T14:07:52.279Z,814.00
2024-02-22T14:08:52.377Z,836.00
2024-02-22T14:09:52.255Z,838.00
2024-02-22T14:10:52.268Z,853.00
2024-02-22T14:11:52.160Z,851.00
2024-02-22T14:12:52.104Z,831.00
2024-02-22T14:13:52.008Z,843.00
2024-02-22T14:14:51.989Z,832.00
2024-02-22T14:15:52.055Z,827.00
2024-02-22T14:16:52.029Z,837.00
2024-02-22T14:17:52.012Z,833.00
2024-02-22T14:18:52.018Z,810.00
2024-02-22T14:19:52.020Z,806.00
2024-02-22T14:20:52.032Z,818.00
2024-02-22T14:21:51.996Z,831.00
2024-02-22T14:22:52.073Z,830.00
2024-02-22T14:23:52.141Z,831.00
2024-02-22T14:24:52.178Z,831.00
2024-02-22T14:25:52.301Z,840.00
2024-02-22T14:26:52.314Z,891.00
2024-02-22T14:27:52.367Z,927.00
2024-02-22T14:28:52.483Z,932.00
2024-02-22T14:29:52.497Z,927.00
2024-02-22T14:30:52.543Z,911.00
2024-02-22T14:31:52.635Z,920.00
2024-02-22T14:32:53.130Z,913.00
2024-02-22T14:33:52.814Z,897.00
2024-02-22T14:34:53.451Z,885.00
2024-02-22T14:35:52.859Z,893.00
2024-02-22T14:36:52.954Z,882.00
2024-02-22T14:37:53.046Z,873.00
2024-02-22T14:38:53.052Z,864.00
2024-02-22T14:39:53.136Z,855.00
2024-02-22T14:40:53.212Z,852.00
2024-02-22T14:41:53.247Z,838.00
2024-02-22T14:42:53.345Z,831.00
2024-02-22T14:43:53.373Z,820.00
2024-02-22T14:44:53.420Z,828.00
2024-02-22T14:45:53.626Z,820.00
2024-02-22T14:46:53.566Z,820.00
2024-02-22T14:47:53.674Z,803.00
2024-02-22T14:48:53.694Z,808.00
2024-02-22T14:49:54.228Z,810.00
2024-02-22T14:50:54.097Z,795.00
2024-02-22T14:51:53.844Z,799.00
2024-02-22T14:52:53.993Z,792.00
2024-02-22T14:53:53.932Z,795.00
2024-02-22T14:54:53.978Z,810.00
2024-02-22T14:55:54.075Z,791.00
2024-02-22T14:56:54.125Z,800.00
2024-02-22T14:57:54.645Z,809.00
2024-02-22T14:58:54.311Z,799.00
2024-02-22T14:59:54.265Z,798.00
2024-02-22T15:00:54.382Z,807.00
2024-02-22T15:01:54.385Z,810.00
2024-02-22T15:02:54.626Z,815.00
2024-02-22T15:03:54.486Z,810.00
2024-02-22T15:04:54.601Z,816.00
2024-02-22T15:05:54.702Z,815.00
2024-02-22T15:06:54.741Z,806.00
2024-02-22T15:07:55.183Z,791.00
2024-02-22T15:08:54.871Z,771.00
2024-02-22T15:09:54.893Z,777.00
2024-02-22T15:10:55.052Z,799.00
2024-02-22T15:11:55.142Z,807.00
2024-02-22T15:12:55.104Z,827.00
2024-02-22T15:13:55.209Z,816.00
2024-02-22T15:14:55.430Z,824.00
2024-02-22T15:15:55.318Z,842.00
2024-02-22T15:16:55.416Z,845.00
2024-02-22T15:17:55.493Z,850.00
2024-02-22T15:18:55.595Z,848.00
2024-02-22T15:19:55.616Z,830.00
2024-02-22T15:20:55.641Z,839.00
2024-02-22T15:21:55.710Z,833.00
2024-02-22T15:22:56.169Z,804.00
2024-02-22T15:23:55.889Z,799.00
2024-02-22T15:24:55.946Z,812.00
2024-02-22T15:25:56.062Z,817.00
2024-02-22T15:26:56.097Z,814.00
2024-02-22T15:27:56.129Z,820.00
2024-02-22T15:28:56.241Z,804.00
2024-02-22T15:29:56.285Z,796.00
2024-02-22T15:30:58.867Z,784.00
2024-02-22T15:31:56.363Z,784.00
2024-02-22T15:32:56.416Z,778.00
2024-02-22T15:34:04.581Z,773.00
2024-02-22T15:34:56.489Z,784.00
2024-02-22T15:35:56.427Z,785.00
2024-02-22T15:36:56.363Z,776.00
2024-02-22T15:37:56.394Z,789.00
2024-02-22T15:38:56.367Z,779.00
2024-02-22T15:39:56.375Z,723.00
2024-02-22T15:40:56.425Z,704.00
2024-02-22T15:41:56.367Z,690.00
2024-02-22T15:42:56.654Z,672.00
2024-02-22T15:43:56.412Z,668.00
2024-02-22T15:44:56.374Z,667.00
2024-02-22T15:45:56.376Z,704.00
2024-02-22T15:46:56.408Z,702.00
2024-02-22T15:47:56.444Z,704.00
2024-02-22T15:48:56.477Z,722.00
2024-02-22T15:49:56.405Z,745.00
2024-02-22T15:50:56.393Z,755.00
2024-02-22T15:51:56.380Z,732.00
2024-02-22T15:52:56.689Z,723.00
2024-02-22T15:53:56.389Z,723.00
2024-02-22T15:54:56.377Z,715.00
2024-02-22T15:55:56.417Z,706.00
2024-02-22T15:56:56.678Z,714.00
2024-02-22T15:57:56.394Z,718.00
2024-02-22T15:58:56.477Z,725.00
2024-02-22T15:59:56.387Z,706.00
2024-02-22T16:00:56.477Z,718.00
2024-02-22T16:01:56.431Z,708.00
2024-02-22T16:02:56.408Z,690.00
2024-02-22T16:03:56.429Z,701.00
2024-02-22T16:04:56.521Z,716.00
2024-02-22T16:05:56.456Z,716.00
2024-02-22T16:06:56.392Z,725.00
2024-02-22T16:07:56.426Z,732.00
2024-02-22T16:08:56.384Z,729.00
2024-02-22T16:09:56.387Z,713.00
2024-02-22T16:10:56.570Z,714.00
2024-02-22T16:11:56.525Z,725.00
2024-02-22T16:12:56.568Z,726.00
2024-02-22T16:13:56.697Z,710.00
2024-02-22T16:14:56.666Z,700.00
2024-02-22T16:15:56.766Z,718.00
2024-02-22T16:16:56.993Z,716.00
2024-02-22T16:17:57.224Z,721.00
2024-02-22T16:18:57.522Z,721.00
2024-02-22T16:19:56.998Z,722.00
2024-02-22T16:20:57.042Z,729.00
2024-02-22T16:21:57.114Z,736.00
2024-02-22T16:22:57.196Z,738.00
2024-02-22T16:23:57.340Z,743.00
2024-02-22T16:24:57.280Z,748.00
2024-02-22T16:25:57.564Z,759.00
2024-02-22T16:26:57.389Z,764.00
2024-02-22T16:27:57.446Z,761.00
2024-02-22T16:28:57.583Z,763.00
2024-02-22T16:29:57.572Z,763.00
2024-02-22T16:30:57.682Z,770.00
2024-02-22T16:31:57.750Z,771.00
2024-02-22T16:32:57.889Z,775.00
2024-02-22T16:33:57.867Z,775.00
2024-02-22T16:34:57.915Z,782.00
2024-02-22T16:35:57.921Z,780.00
2024-02-22T16:36:57.990Z,786.00
2024-02-22T16:37:58.079Z,786.00
2024-02-22T16:39:02.880Z,785.00
2024-02-22T16:39:58.102Z,786.00
2024-02-22T16:40:58.203Z,788.00
2024-02-22T16:41:58.100Z,791.00
2024-02-22T16:42:58.113Z,792.00
2024-02-22T16:43:58.167Z,800.00
2024-02-22T16:44:58.152Z,801.00
2024-02-22T16:45:58.128Z,800.00
2024-02-22T16:46:58.126Z,809.00
2024-02-22T16:47:58.163Z,803.00
2024-02-22T16:48:58.204Z,810.00
2024-02-22T16:49:58.159Z,808.00
2024-02-22T16:50:58.121Z,808.00
2024-02-22T16:51:58.122Z,811.00
2024-02-22T16:52:58.158Z,805.00
2024-02-22T16:53:58.128Z,808.00
2024-02-22T16:54:58.124Z,804.00
2024-02-22T16:55:58.143Z,804.00
2024-02-22T16:56:58.122Z,805.00
2024-02-22T16:57:58.140Z,811.00
2024-02-22T16:58:58.142Z,806.00
2024-02-22T16:59:58.134Z,811.00
2024-02-22T17:00:58.178Z,793.00
2024-02-22T17:01:58.220Z,812.00
2024-02-22T17:02:58.162Z,806.00
2024-02-22T17:03:58.257Z,814.00
2024-02-22T17:04:58.367Z,815.00
2024-02-22T17:05:58.559Z,805.00
2024-02-22T17:06:58.476Z,804.00
2024-02-22T17:07:58.514Z,814.00
2024-02-22T17:08:58.536Z,812.00
2024-02-22T17:09:58.591Z,813.00
2024-02-22T17:10:58.726Z,810.00
2024-02-22T17:11:58.769Z,809.00
2024-02-22T17:12:58.745Z,804.00
2024-02-22T17:13:58.893Z,806.00
2024-02-22T17:14:58.862Z,805.00
2024-02-22T17:15:58.873Z,806.00
2024-02-22T17:16:58.978Z,806.00
2024-02-22T17:17:59.007Z,808.00
2024-02-22T17:18:59.055Z,806.00
2024-02-22T17:19:59.113Z,798.00
2024-02-22T17:20:59.117Z,801.00
2024-02-22T17:21:59.168Z,800.00
2024-02-22T17:22:59.261Z,801.00
2024-02-22T17:23:59.232Z,801.00
2024-02-22T17:24:59.302Z,797.00
2024-02-22T17:25:59.345Z,793.00
2024-02-22T17:26:59.368Z,798.00
2024-02-22T17:27:59.388Z,796.00
2024-02-22T17:28:59.468Z,797.00
2024-02-22T17:29:59.466Z,791.00
2024-02-22T17:30:59.509Z,794.00
2024-02-22T17:31:59.560Z,794.00
2024-02-22T17:32:59.656Z,797.00
2024-02-22T17:33:59.662Z,792.00
2024-02-22T17:34:59.677Z,790.00
2024-02-22T17:35:59.700Z,785.00
2024-02-22T17:36:59.762Z,786.00
2024-02-22T17:37:59.823Z,787.00
2024-02-22T17:38:59.837Z,783.00
2024-02-22T17:39:59.853Z,783.00
2024-02-22T17:40:59.947Z,776.00
2024-02-22T17:41:59.941Z,787.00
2024-02-22T17:42:59.971Z,785.00
2024-02-22T17:44:00.069Z,785.00
2024-02-22T17:45:00.017Z,780.00
2024-02-22T17:46:00.082Z,781.00
2024-02-22T17:47:00.140Z,782.00
2024-02-22T17:48:00.200Z,778.00
2024-02-22T17:49:00.251Z,779.00
2024-02-22T17:50:00.307Z,779.00
2024-02-22T17:51:00.295Z,781.00
2024-02-22T17:52:00.369Z,779.00
2024-02-22T17:53:00.499Z,772.00
2024-02-22T17:54:00.427Z,775.00
2024-02-22T17:55:00.499Z,769.00
2024-02-22T17:56:00.664Z,769.00
2024-02-22T17:57:02.272Z,770.00
2024-02-22T17:58:00.589Z,770.00
2024-02-22T17:59:00.613Z,771.00
2024-02-22T18:00:00.587Z,770.00
2024-02-22T18:01:00.676Z,770.00
2024-02-22T18:02:00.641Z,771.00
2024-02-22T18:03:03.983Z,764.00
2024-02-22T18:04:00.629Z,764.00
2024-02-22T18:05:00.847Z,764.00
2024-02-22T18:06:00.696Z,766.00
2024-02-22T18:07:00.702Z,758.00
2024-02-22T18:08:00.730Z,766.00
2024-02-22T18:09:00.708Z,766.00
2024-02-22T18:10:00.720Z,759.00
2024-02-22T18:11:00.823Z,758.00
2024-02-22T18:12:00.838Z,754.00
2024-02-22T18:13:00.757Z,755.00
2024-02-22T18:14:03.979Z,755.00
2024-02-22T18:15:00.754Z,755.00
2024-02-22T18:16:00.797Z,757.00
2024-02-22T18:17:00.826Z,756.00
2024-02-22T18:18:00.806Z,757.00
2024-02-22T18:19:00.863Z,754.00
2024-02-22T18:20:02.216Z,745.00
2024-02-22T18:21:00.788Z,754.00
2024-02-22T18:22:00.782Z,752.00
2024-02-22T18:23:00.841Z,754.00
2024-02-22T18:24:00.769Z,744.00
2024-02-22T18:25:00.799Z,756.00
2024-02-22T18:26:00.850Z,746.00
2024-02-22T18:27:00.795Z,744.00
2024-02-22T18:28:00.802Z,740.00
2024-02-22T18:29:00.802Z,744.00
2024-02-22T18:30:00.786Z,749.00
2024-02-22T18:31:00.775Z,741.00
2024-02-22T18:32:00.821Z,739.00
2024-02-22T18:33:00.834Z,737.00
2024-02-22T18:34:00.854Z,740.00
2024-02-22T18:35:01.010Z,735.00
2024-02-22T18:36:00.780Z,736.00
2024-02-22T18:37:00.817Z,739.00
2024-02-22T18:38:00.840Z,734.00
2024-02-22T18:39:00.819Z,742.00
2024-02-22T18:40:00.785Z,725.00
2024-02-22T18:41:00.842Z,727.00
2024-02-22T18:42:00.796Z,732.00
2024-02-22T18:43:00.791Z,731.00
2024-02-22T18:44:00.820Z,735.00
2024-02-22T18:45:03.051Z,742.00
2024-02-22T18:46:00.790Z,737.00
2024-02-22T18:47:00.817Z,739.00
2024-02-22T18:48:00.841Z,737.00
2024-02-22T18:49:00.854Z,731.00
2024-02-22T18:50:00.951Z,729.00
2024-02-22T18:51:00.804Z,731.00
2024-02-22T18:52:00.797Z,728.00
2024-02-22T18:53:00.864Z,719.00
2024-02-22T18:54:00.802Z,725.00
2024-02-22T18:55:00.802Z,731.00
2024-02-22T18:56:00.884Z,727.00
2024-02-22T18:57:00.826Z,718.00
2024-02-22T18:58:00.806Z,721.00
2024-02-22T18:59:00.864Z,712.00
2024-02-22T19:00:00.818Z,717.00
2024-02-22T19:01:00.916Z,714.00
2024-02-22T19:02:00.852Z,722.00
2024-02-22T19:03:00.832Z,724.00
2024-02-22T19:04:00.890Z,715.00
2024-02-22T19:05:00.888Z,718.00
2024-02-22T19:06:00.852Z,722.00
2024-02-22T19:07:00.836Z,713.00
2024-02-22T19:08:00.853Z,711.00
2024-02-22T19:09:01.239Z,712.00
2024-02-22T19:10:00.862Z,712.00
2024-02-22T19:11:00.884Z,713.00
2024-02-22T19:12:01.705Z,718.00
2024-02-22T19:13:00.855Z,706.00
2024-02-22T19:14:00.881Z,714.00
2024-02-22T19:15:00.874Z,709.00
2024-02-22T19:16:00.866Z,705.00
2024-02-22T19:17:00.887Z,712.00
2024-02-22T19:18:00.948Z,706.00
2024-02-22T19:19:00.908Z,703.00
2024-02-22T19:20:01.159Z,716.00
2024-02-22T19:21:00.989Z,711.00
2024-02-22T19:22:00.868Z,706.00
2024-02-22T19:23:00.886Z,698.00
2024-02-22T19:24:00.878Z,698.00
2024-02-22T19:25:00.924Z,710.00
2024-02-22T19:26:00.912Z,703.00
2024-02-22T19:27:02.875Z,699.00
2024-02-22T19:28:00.887Z,699.00
2024-02-22T19:29:00.908Z,699.00
2024-02-22T19:30:01.068Z,701.00
2024-02-22T19:31:00.893Z,700.00
2024-02-22T19:32:00.922Z,698.00
2024-02-22T19:33:00.909Z,694.00
2024-02-22T19:34:00.948Z,692.00
2024-02-22T19:35:01.043Z,702.00
2024-02-22T19:36:00.905Z,690.00
2024-02-22T19:37:00.908Z,689.00
2024-02-22T19:38:00.939Z,698.00
2024-02-22T19:39:00.946Z,692.00
2024-02-22T19:40:00.915Z,685.00
2024-02-22T19:41:01.763Z,699.00
2024-02-22T19:42:00.920Z,699.00
2024-02-22T19:43:00.924Z,692.00
2024-02-22T19:44:00.948Z,688.00
2024-02-22T19:45:00.922Z,687.00
2024-02-22T19:46:00.928Z,688.00
2024-02-22T19:47:01.010Z,688.00
2024-02-22T19:48:00.954Z,691.00
2024-02-22T19:49:01.014Z,682.00
2024-02-22T19:50:00.996Z,684.00
2024-02-22T19:51:00.925Z,675.00
2024-02-22T19:52:00.931Z,684.00
2024-02-22T19:53:00.978Z,684.00